Portada
METAR-TAF:

METAR-TAF

Aeroports :

Aeroport d'Albacete

Albacete, Espanya

latitud: 38-57N, longitud: 001-51W, altitud: 702 m

Observació

L'informe es va fer fa 6 hores i 39 minuts, a les 05:00 UTC
Vent 5 kt del Est/Sud-Est
Temperatura 16°C
Humitat 82%
Pressió 1020 hPa
Visibilitat 10 km o més
sense núvols per sota de 1500 mi sense presència de cumulonimbus.

METAR: LEAB 210500Z 12005KT CAVOK 16/13 Q1020 NOSIG

Hora: 13:39 (11:39 UTC)

Pronòstic

L'informe es va fer fa 6 hores i 39 minuts, a les 05:00 UTC
Pronòstic vàlid del 21 a les 06 UTC al 21 a les 15 UTC
Vent 4 kt amb direcció variable
Visibilitat 10 km o més
sense núvols per sota de 1500 mi sense presència de cumulonimbus.

TAF: LEAB 210500Z 2106/2115 VRB04KT CAVOK

Observacions i pronòstics meteorològics de més de 4000 aeroports (METAR i TAF).

Les estacions disponibles són els punts grocs i vermells al mapa.

Posi el ratolí al punt desitjat per veure el nom de l'estació.

Feu clic per veure les observacions i els pronòstics meteorològics.

Per canviar el mapa: feu clic els botons verds amb una creu de color negre per apropar; al botó verd amb un guió per allunyar la imatge; o en les fletxes verdes per a mapes adjacents.


METAR-TAF: